Beverly Manor, Illinois
Current Conditions -  °F | °C
As of 8:54 PM on Thursday 18 Dec 2014 (Local Time) from KPIA Reporting Station
Overcast Overcast  
Wind Chill: -3°   Ceiling: 4700
Heat Index: -3°   Visibility: 10mi
Dew Point: -7°   Wind: 0mph
Humidity: 72%   Direction: NA
Pressure: 30.28"   Gusts: NA
Location:  40.703°N, 89.4173°W
Report Text: KPIA 190254Z 00000KT 10SM OVC047 M03/M07 A3028 RMK AO2 SLP264 T10281072 52003
Loading
Personal Weather Stations






























Interactive Weather Map New forecast layout! Learn more

10-Day Weather Forecast

Advertisements
Track Severe Weather on mobile